TAM8086 SBGR-KLAX
Flight info
| Callsign | TAM8086 |
|---|---|
| Flight time | N/A |
| Altitude | 32000 |
| Route | GERTU UL201 PANAB DCT RODAD DCT ETETO/N0500F340 DCT ISOLU DCT AKTOR UL655 EGODI/N0492F360 UL655 ASOKU UT152 IREKO/N0486F380 UT152 PPE J93 ASUTA DCT AMMOR OLAAA2 |
| Aircraft | B77W/H-SDE1E2E3FGHIJ2J3J4J5M1RWXY/LB1D1 |
Departure
| Time | N/A |
|---|---|
| Airport | São Paulo/Guarulhos–Governor André Franco Montoro International Airport (SBGR) |
Arrival
| Time | 2026-04-22 14:41 |
|---|---|
| Airport | Los Angeles International Airport (KLAX) |
| Time | Latitude | Longitude | Altitude | Speed | Heading |
|---|---|---|---|---|---|
| 2026-04-22 13:48 | 31.27138 | -113.12083 | 32037 ft | 443 kts | 298° |
| 2026-04-22 13:49 | 31.30382 | -113.18186 | 32033 ft | 444 kts | 298° |
| 2026-04-22 13:49 | 31.33645 | -113.24334 | 32036 ft | 445 kts | 298° |
| 2026-04-22 13:50 | 31.36913 | -113.30495 | 32034 ft | 446 kts | 299° |
| 2026-04-22 13:50 | 31.40275 | -113.36557 | 32035 ft | 447 kts | 300° |
| 2026-04-22 13:51 | 31.43717 | -113.42616 | 32034 ft | 447 kts | 300° |
| 2026-04-22 13:51 | 31.47147 | -113.48685 | 32049 ft | 447 kts | 300° |
| 2026-04-22 13:52 | 31.50567 | -113.54775 | 32042 ft | 447 kts | 300° |
| 2026-04-22 13:52 | 31.53978 | -113.60872 | 32042 ft | 447 kts | 300° |
| 2026-04-22 13:53 | 31.57388 | -113.66979 | 32045 ft | 447 kts | 300° |
| 2026-04-22 13:53 | 31.60791 | -113.73082 | 32047 ft | 447 kts | 300° |
| 2026-04-22 13:54 | 31.64190 | -113.79185 | 32079 ft | 446 kts | 299° |
| 2026-04-22 13:54 | 31.67558 | -113.85245 | 32060 ft | 446 kts | 299° |
| 2026-04-22 13:55 | 31.70951 | -113.91358 | 32051 ft | 446 kts | 299° |
| 2026-04-22 13:55 | 31.74339 | -113.97471 | 32054 ft | 446 kts | 299° |
| 2026-04-22 13:56 | 31.77677 | -114.03504 | 32067 ft | 446 kts | 299° |
| 2026-04-22 13:56 | 31.81057 | -114.09622 | 32051 ft | 446 kts | 299° |
| 2026-04-22 13:57 | 31.84438 | -114.15752 | 32071 ft | 447 kts | 299° |
| 2026-04-22 13:57 | 31.87818 | -114.21891 | 32065 ft | 447 kts | 299° |
| 2026-04-22 13:58 | 31.91192 | -114.28027 | 32067 ft | 447 kts | 299° |
| 2026-04-22 13:58 | 31.94564 | -114.34170 | 32068 ft | 447 kts | 299° |
| 2026-04-22 13:59 | 31.97917 | -114.40288 | 32054 ft | 446 kts | 299° |
| 2026-04-22 13:59 | 32.01279 | -114.46435 | 32097 ft | 446 kts | 298° |
| 2026-04-22 14:00 | 32.04645 | -114.52597 | 32075 ft | 447 kts | 298° |
| 2026-04-22 14:00 | 32.08012 | -114.58771 | 32070 ft | 447 kts | 298° |
| 2026-04-22 14:01 | 32.11375 | -114.64947 | 32065 ft | 447 kts | 298° |
| 2026-04-22 14:01 | 32.14736 | -114.71129 | 32065 ft | 447 kts | 298° |
| 2026-04-22 14:02 | 32.18070 | -114.77273 | 32065 ft | 447 kts | 298° |
| 2026-04-22 14:02 | 32.21423 | -114.83462 | 32069 ft | 447 kts | 298° |
| 2026-04-22 14:03 | 32.24769 | -114.89648 | 32063 ft | 447 kts | 298° |
| 2026-04-22 14:03 | 32.28113 | -114.95842 | 32062 ft | 446 kts | 298° |
| 2026-04-22 14:04 | 32.31404 | -115.01945 | 32060 ft | 446 kts | 298° |
| 2026-04-22 14:04 | 32.34737 | -115.08136 | 32066 ft | 447 kts | 298° |
| 2026-04-22 14:05 | 32.38056 | -115.14301 | 32081 ft | 447 kts | 298° |
| 2026-04-22 14:06 | 32.43064 | -115.23620 | 32077 ft | 447 kts | 298° |
| 2026-04-22 14:06 | 32.46397 | -115.29836 | 32074 ft | 447 kts | 298° |
| 2026-04-22 14:07 | 32.49724 | -115.36052 | 32068 ft | 446 kts | 298° |
| 2026-04-22 14:07 | 32.53040 | -115.42258 | 32063 ft | 445 kts | 298° |
| 2026-04-22 14:08 | 32.56347 | -115.48458 | 32061 ft | 444 kts | 298° |
| 2026-04-22 14:08 | 32.59641 | -115.54644 | 32075 ft | 443 kts | 297° |
| 2026-04-22 14:09 | 32.62929 | -115.60830 | 32087 ft | 443 kts | 297° |
| 2026-04-22 14:09 | 32.66192 | -115.66981 | 32088 ft | 443 kts | 297° |
| 2026-04-22 14:10 | 32.69458 | -115.73194 | 32104 ft | 444 kts | 297° |
| 2026-04-22 14:10 | 32.72729 | -115.79436 | 32118 ft | 445 kts | 297° |
| 2026-04-22 14:11 | 32.76006 | -115.85692 | 32104 ft | 446 kts | 297° |
| 2026-04-22 14:11 | 32.79278 | -115.91948 | 32106 ft | 445 kts | 297° |
| 2026-04-22 14:12 | 32.82508 | -115.98219 | 32109 ft | 444 kts | 296° |
| 2026-04-22 14:12 | 32.85626 | -116.04461 | 32116 ft | 442 kts | 296° |
| 2026-04-22 14:13 | 32.88764 | -116.10753 | 32125 ft | 442 kts | 296° |
| 2026-04-22 14:13 | 32.91883 | -116.16990 | 31739 ft | 433 kts | 296° |
| 2026-04-22 14:13 | 32.93421 | -116.20066 | 31136 ft | 430 kts | 296° |
| 2026-04-22 14:14 | 32.94946 | -116.23123 | 30444 ft | 429 kts | 296° |
| 2026-04-22 14:14 | 32.96471 | -116.26182 | 29722 ft | 428 kts | 296° |
| 2026-04-22 14:14 | 32.97985 | -116.29221 | 29084 ft | 425 kts | 296° |
| 2026-04-22 14:14 | 32.99487 | -116.32236 | 28527 ft | 421 kts | 296° |
| 2026-04-22 14:15 | 33.00969 | -116.35216 | 27953 ft | 417 kts | 296° |
| 2026-04-22 14:15 | 33.02425 | -116.38144 | 27367 ft | 414 kts | 296° |
| 2026-04-22 14:15 | 33.03887 | -116.41087 | 26838 ft | 411 kts | 296° |
| 2026-04-22 14:15 | 33.05292 | -116.44027 | 26371 ft | 405 kts | 292° |
| 2026-04-22 14:16 | 33.06491 | -116.47088 | 26250 ft | 409 kts | 290° |
| 2026-04-22 14:16 | 33.07605 | -116.50196 | 26097 ft | 405 kts | 289° |
| 2026-04-22 14:16 | 33.08702 | -116.53278 | 25930 ft | 402 kts | 289° |
| 2026-04-22 14:16 | 33.09810 | -116.56334 | 25670 ft | 401 kts | 290° |
| 2026-04-22 14:17 | 33.10937 | -116.59379 | 25237 ft | 404 kts | 290° |
| 2026-04-22 14:17 | 33.12084 | -116.62454 | 24872 ft | 406 kts | 290° |
| 2026-04-22 14:17 | 33.13213 | -116.65539 | 24620 ft | 404 kts | 288° |
| 2026-04-22 14:17 | 33.13945 | -116.68745 | 24391 ft | 398 kts | 278° |
| 2026-04-22 14:18 | 33.14401 | -116.71987 | 24148 ft | 396 kts | 277° |
| 2026-04-22 14:18 | 33.14824 | -116.75231 | 23935 ft | 395 kts | 276° |
| 2026-04-22 14:18 | 33.15251 | -116.78468 | 23725 ft | 394 kts | 277° |
| 2026-04-22 14:18 | 33.15690 | -116.81696 | 23453 ft | 393 kts | 277° |
| 2026-04-22 14:19 | 33.16141 | -116.84908 | 23238 ft | 392 kts | 277° |
| 2026-04-22 14:19 | 33.16601 | -116.88113 | 23005 ft | 390 kts | 277° |
| 2026-04-22 14:19 | 33.17062 | -116.91297 | 22759 ft | 389 kts | 277° |
| 2026-04-22 14:19 | 33.17525 | -116.94481 | 22540 ft | 388 kts | 277° |
| 2026-04-22 14:20 | 33.18430 | -117.00714 | 22157 ft | 384 kts | 277° |
| 2026-04-22 14:20 | 33.18886 | -117.03860 | 21887 ft | 384 kts | 277° |
| 2026-04-22 14:20 | 33.19340 | -117.07003 | 21581 ft | 383 kts | 277° |
| 2026-04-22 14:21 | 33.20232 | -117.13199 | 20997 ft | 379 kts | 277° |
| 2026-04-22 14:21 | 33.20676 | -117.16287 | 20694 ft | 376 kts | 277° |
| 2026-04-22 14:22 | 33.21552 | -117.22403 | 20142 ft | 371 kts | 277° |
| 2026-04-22 14:22 | 33.21985 | -117.25436 | 19868 ft | 370 kts | 277° |
| 2026-04-22 14:22 | 33.22843 | -117.31461 | 19299 ft | 367 kts | 277° |
| 2026-04-22 14:23 | 33.23288 | -117.34453 | 19025 ft | 365 kts | 278° |
| 2026-04-22 14:23 | 33.23755 | -117.37431 | 18756 ft | 364 kts | 278° |
| 2026-04-22 14:23 | 33.24225 | -117.40400 | 18473 ft | 363 kts | 278° |
| 2026-04-22 14:23 | 33.24692 | -117.43364 | 18168 ft | 362 kts | 278° |
| 2026-04-22 14:24 | 33.25154 | -117.46319 | 17856 ft | 361 kts | 278° |
| 2026-04-22 14:24 | 33.25612 | -117.49269 | 17554 ft | 360 kts | 278° |
| 2026-04-22 14:24 | 33.26090 | -117.52198 | 17237 ft | 357 kts | 282° |
| 2026-04-22 14:24 | 33.27030 | -117.54940 | 16924 ft | 358 kts | 297° |
| 2026-04-22 14:25 | 33.28383 | -117.57446 | 16658 ft | 358 kts | 300° |
| 2026-04-22 14:25 | 33.29759 | -117.59932 | 16346 ft | 358 kts | 300° |
| 2026-04-22 14:25 | 33.31124 | -117.62412 | 16057 ft | 358 kts | 299° |
| 2026-04-22 14:25 | 33.32488 | -117.64908 | 15770 ft | 357 kts | 299° |
| 2026-04-22 14:26 | 33.33838 | -117.67396 | 15444 ft | 357 kts | 299° |
| 2026-04-22 14:26 | 33.35170 | -117.69863 | 15061 ft | 358 kts | 299° |
| 2026-04-22 14:26 | 33.36529 | -117.72388 | 14684 ft | 354 kts | 299° |
| 2026-04-22 14:26 | 33.37835 | -117.74817 | 14310 ft | 349 kts | 299° |
| 2026-04-22 14:27 | 33.39137 | -117.77244 | 13928 ft | 344 kts | 299° |
| 2026-04-22 14:27 | 33.40422 | -117.79643 | 13508 ft | 340 kts | 299° |
| 2026-04-22 14:27 | 33.41690 | -117.82011 | 13075 ft | 336 kts | 299° |
| 2026-04-22 14:27 | 33.42949 | -117.84365 | 12551 ft | 336 kts | 300° |
| 2026-04-22 14:28 | 33.44208 | -117.86720 | 12046 ft | 335 kts | 300° |
| 2026-04-22 14:28 | 33.45463 | -117.89067 | 11542 ft | 335 kts | 300° |
| 2026-04-22 14:28 | 33.46729 | -117.91393 | 11025 ft | 330 kts | 304° |
| 2026-04-22 14:28 | 33.48388 | -117.93317 | 10525 ft | 336 kts | 321° |
| 2026-04-22 14:29 | 33.50457 | -117.94584 | 10029 ft | 341 kts | 335° |
| 2026-04-22 14:29 | 33.52692 | -117.95521 | 9506 ft | 341 kts | 337° |
| 2026-04-22 14:29 | 33.54936 | -117.96444 | 8980 ft | 341 kts | 337° |
| 2026-04-22 14:29 | 33.57201 | -117.97399 | 8504 ft | 341 kts | 337° |
| 2026-04-22 14:30 | 33.59414 | -117.98351 | 8112 ft | 342 kts | 337° |
| 2026-04-22 14:30 | 33.61575 | -117.99292 | 7969 ft | 313 kts | 337° |
| 2026-04-22 14:30 | 33.63485 | -118.00087 | 7964 ft | 291 kts | 339° |
| 2026-04-22 14:30 | 33.65437 | -118.00794 | 8004 ft | 296 kts | 340° |
| 2026-04-22 14:31 | 33.67405 | -118.01495 | 7837 ft | 293 kts | 340° |
| 2026-04-22 14:31 | 33.69337 | -118.02190 | 7658 ft | 286 kts | 340° |
| 2026-04-22 14:31 | 33.71219 | -118.02872 | 7468 ft | 279 kts | 340° |
| 2026-04-22 14:31 | 33.73064 | -118.03545 | 7283 ft | 274 kts | 340° |
| 2026-04-22 14:32 | 33.74852 | -118.04198 | 7019 ft | 260 kts | 340° |
| 2026-04-22 14:32 | 33.76557 | -118.04821 | 6739 ft | 253 kts | 340° |
| 2026-04-22 14:32 | 33.78208 | -118.05426 | 6622 ft | 242 kts | 339° |
| 2026-04-22 14:32 | 33.79761 | -118.06111 | 6409 ft | 235 kts | 335° |
| 2026-04-22 14:33 | 33.81254 | -118.06842 | 6167 ft | 229 kts | 335° |
| 2026-04-22 14:33 | 33.82706 | -118.07553 | 5952 ft | 222 kts | 335° |
| 2026-04-22 14:33 | 33.84123 | -118.08240 | 5716 ft | 218 kts | 335° |
| 2026-04-22 14:33 | 33.85540 | -118.08926 | 5465 ft | 220 kts | 336° |
| 2026-04-22 14:34 | 33.86929 | -118.09593 | 5259 ft | 210 kts | 336° |
| 2026-04-22 14:34 | 33.87816 | -118.10019 | 5080 ft | 205 kts | 336° |
| 2026-04-22 14:34 | 33.89096 | -118.10634 | 5044 ft | 197 kts | 336° |
| 2026-04-22 14:34 | 33.90345 | -118.11235 | 4996 ft | 189 kts | 336° |
| 2026-04-22 14:35 | 33.91987 | -118.12025 | 5013 ft | 197 kts | 336° |
| 2026-04-22 14:35 | 33.93362 | -118.12694 | 5037 ft | 220 kts | 336° |
| 2026-04-22 14:35 | 33.94284 | -118.13237 | 4987 ft | 217 kts | 322° |
| 2026-04-22 14:35 | 33.95141 | -118.14593 | 4978 ft | 193 kts | 286° |
| 2026-04-22 14:36 | 33.95389 | -118.16060 | 4985 ft | 172 kts | 289° |
| 2026-04-22 14:36 | 33.95801 | -118.17418 | 4609 ft | 165 kts | 279° |
| 2026-04-22 14:36 | 33.95710 | -118.18762 | 4808 ft | 171 kts | 260° |
| 2026-04-22 14:36 | 33.95490 | -118.20214 | 4394 ft | 176 kts | 260° |
| 2026-04-22 14:37 | 33.95335 | -118.21607 | 4218 ft | 167 kts | 264° |
| 2026-04-22 14:37 | 33.95223 | -118.23032 | 3744 ft | 172 kts | 265° |
| 2026-04-22 14:37 | 33.95113 | -118.24433 | 3380 ft | 149 kts | 265° |
| 2026-04-22 14:37 | 33.95024 | -118.25708 | 3012 ft | 158 kts | 264° |
| 2026-04-22 14:38 | 33.94913 | -118.26977 | 2593 ft | 146 kts | 262° |
| 2026-04-22 14:38 | 33.94776 | -118.28180 | 2218 ft | 151 kts | 264° |
| 2026-04-22 14:38 | 33.94669 | -118.29443 | 1953 ft | 152 kts | 263° |
| 2026-04-22 14:38 | 33.94544 | -118.30714 | 1675 ft | 154 kts | 264° |
| 2026-04-22 14:39 | 33.94415 | -118.31994 | 1402 ft | 157 kts | 262° |
| 2026-04-22 14:39 | 33.94272 | -118.33218 | 1167 ft | 155 kts | 263° |
| 2026-04-22 14:39 | 33.94132 | -118.34459 | 925 ft | 154 kts | 262° |
| 2026-04-22 14:40 | 33.93870 | -118.37008 | 399 ft | 156 kts | 262° |
| 2026-04-22 14:40 | 33.93734 | -118.38291 | 158 ft | 155 kts | 263° |
| 2026-04-22 14:40 | 33.93609 | -118.39523 | 102 ft | 129 kts | 263° |
| 2026-04-22 14:40 | 33.93526 | -118.40341 | 99 ft | 64 kts | 263° |
| 2026-04-22 14:41 | 33.93486 | -118.40739 | 98 ft | 46 kts | 263° |
| 2026-04-22 14:41 | 33.93509 | -118.41086 | 101 ft | 22 kts | 289° |
| 2026-04-22 14:41 | 33.93532 | -118.41163 | 102 ft | 8 kts | 289° |
| 2026-04-22 14:41 | 33.93542 | -118.41209 | 100 ft | 5 kts | 280° |
| 2026-04-22 14:42 | 33.93556 | -118.41243 | 102 ft | 5 kts | 314° |
| 2026-04-22 14:42 | 33.93631 | -118.41266 | 102 ft | 16 kts | 353° |
| 2026-04-22 14:42 | 33.93734 | -118.41276 | 101 ft | 10 kts | 15° |
| 2026-04-22 14:42 | 33.93756 | -118.41213 | 99 ft | 10 kts | 84° |
| 2026-04-22 14:43 | 33.93773 | -118.41045 | 98 ft | 23 kts | 83° |
| 2026-04-22 14:43 | 33.93792 | -118.40850 | 99 ft | 23 kts | 84° |
| 2026-04-22 14:43 | 33.93861 | -118.40746 | 99 ft | 17 kts | 342° |
| 2026-04-22 14:43 | 33.93922 | -118.40809 | 100 ft | 12 kts | 345° |
| 2026-04-22 14:44 | 33.94004 | -118.40823 | 99 ft | 12 kts | 352° |
| 2026-04-22 14:44 | 33.94036 | -118.40856 | 101 ft | 5 kts | 274° |
| 2026-04-22 14:44 | 33.94026 | -118.40900 | 101 ft | 6 kts | 260° |
| 2026-04-22 14:44 | 33.94024 | -118.40923 | 100 ft | 0 kts | 262° |